Terminal Aerodrome Forecast
Issued by NWS

Home | Current Version | Previous Version | Text Only | Print | Product List | Glossary On
Versions: 1 2 3 4 5 6 7 8 9 10 11 12 13 14 15 16 17 18 19 20 21 22 23 24 25 26 27
000
FTUS45 KBYZ 131612 AAA
TAFLVM
TAF AMD
KLVM 131612Z 1316/1412 34022G35KT P6SM VCSH SCT030 BKN050
      TEMPO 1316/1317 1SM -SN
     FM131800 27022G35KT P6SM BKN050
     FM132100 27030G45KT P6SM BKN050
     FM140300 23025G35KT P6SM BKN050=

USA.gov is the U.S. government's official web portal to all federal, state and local government web resources and services.